Time;durP1;ratioP1;P1;durP2;ratioP2;P2;SDS_P1;SDS_P2;PMS_P1;PMS_P2;Temp;Humidity;BMP_temperature;BMP_pressure;BME280_temperature;BME280_humidity;BME280_pressure;Samples;Min_cycle;Max_cycle;Signal;HPM_P1;HPM_P2
2024/01/20 00:00:54;;;;;;;34.23;24.20;;;;;;;-5.15;100.00;101468.34;4910348;29;20192;-77
2024/01/20 00:03:19;;;;;;;42.20;26.77;;;;;;;-5.30;100.00;101468.97;4925941;29;20227;-77
2024/01/20 00:05:45;;;;;;;34.93;24.13;;;;;;;-5.33;100.00;101468.75;4922501;29;20200;-77
2024/01/20 00:08:10;;;;;;;36.53;24.97;;;;;;;-5.26;100.00;101472.59;4927286;29;22108;-77
2024/01/20 00:10:36;;;;;;;37.30;25.10;;;;;;;-5.42;100.00;101478.16;4925983;29;20732;-78
2024/01/20 00:13:02;;;;;;;35.27;25.20;;;;;;;-5.49;100.00;101478.47;4911454;29;20183;-77
2024/01/20 00:15:27;;;;;;;35.47;25.47;;;;;;;-5.44;100.00;101479.69;4928799;29;20222;-77
2024/01/20 00:17:53;;;;;;;36.77;25.13;;;;;;;-5.46;100.00;101474.53;4911305;29;20218;-77
2024/01/20 00:20:18;;;;;;;38.90;26.53;;;;;;;-5.53;100.00;101483.28;4911272;29;20258;-77
2024/01/20 00:22:44;;;;;;;37.03;26.87;;;;;;;-5.64;100.00;101489.16;4924611;29;20217;-78
2024/01/20 00:25:10;;;;;;;35.33;26.10;;;;;;;-5.70;100.00;101484.53;4911226;29;20279;-78
2024/01/20 00:27:35;;;;;;;36.40;24.60;;;;;;;-5.76;100.00;101489.13;4925941;29;20274;-77
2024/01/20 00:30:01;;;;;;;36.23;24.73;;;;;;;-5.82;100.00;101488.63;4923093;29;20202;-78
2024/01/20 00:32:26;;;;;;;33.53;24.67;;;;;;;-5.83;100.00;101484.34;4927333;29;20278;-77
2024/01/20 00:34:52;;;;;;;34.83;22.73;;;;;;;-5.86;100.00;101495.09;4927578;29;20947;-77
2024/01/20 00:37:17;;;;;;;32.50;23.80;;;;;;;-5.86;100.00;101494.19;4926824;29;20203;-77
2024/01/20 00:39:42;;;;;;;37.17;27.90;;;;;;;-5.81;100.00;101487.88;4929194;29;20199;-77
2024/01/20 00:42:08;;;;;;;47.63;31.37;;;;;;;-5.82;100.00;101491.16;4925732;29;20185;-78
2024/01/20 00:44:33;;;;;;;42.70;29.13;;;;;;;-5.81;100.00;101486.22;4911290;29;20287;-77
2024/01/20 00:46:59;;;;;;;41.63;27.40;;;;;;;-5.92;100.00;101492.09;4927803;29;20211;-77
2024/01/20 00:49:24;;;;;;;39.73;27.60;;;;;;;-5.89;100.00;101496.47;4906377;29;20222;-76
2024/01/20 00:51:50;;;;;;;35.50;25.30;;;;;;;-5.84;100.00;101496.09;4922377;29;20951;-77
2024/01/20 00:54:15;;;;;;;37.83;26.30;;;;;;;-5.71;100.00;101504.59;4924522;29;20290;-77
2024/01/20 00:56:40;;;;;;;35.80;25.60;;;;;;;-5.61;100.00;101511.22;4924604;29;20653;-77
2024/01/20 00:59:05;;;;;;;36.40;25.17;;;;;;;-5.54;100.00;101514.34;4912603;29;20191;-77
2024/01/20 01:01:31;;;;;;;37.47;25.40;;;;;;;-5.53;100.00;101516.09;4930306;29;20249;-78
2024/01/20 01:03:56;;;;;;;35.80;24.27;;;;;;;-5.41;100.00;101506.03;4929409;29;20664;-78
2024/01/20 01:06:23;;;;;;;35.00;23.83;;;;;;;-5.38;100.00;101515.50;4913751;29;20286;-78
2024/01/20 01:08:48;;;;;;;39.27;26.30;;;;;;;-5.57;100.00;101514.09;4923422;29;20215;-78
2024/01/20 01:11:14;;;;;;;42.80;27.97;;;;;;;-5.64;100.00;101519.41;4916757;29;20555;-75
2024/01/20 01:13:40;;;;;;;48.73;29.00;;;;;;;-5.71;100.00;101520.59;4915986;29;20242;-78
2024/01/20 01:16:05;;;;;;;44.50;28.60;;;;;;;-5.71;100.00;101520.59;4940229;29;20218;-77
2024/01/20 01:18:32;;;;;;;45.13;28.50;;;;;;;-5.76;100.00;101524.41;4928861;29;20195;-77
2024/01/20 01:20:58;;;;;;;40.63;26.90;;;;;;;-5.81;100.00;101526.56;4928678;29;20565;-78
2024/01/20 01:23:23;;;;;;;38.80;26.67;;;;;;;-5.84;100.00;101531.38;4928527;29;20202;-77
2024/01/20 01:25:49;;;;;;;40.90;27.13;;;;;;;-5.81;100.00;101523.19;4915465;29;20261;-77
2024/01/20 01:28:14;;;;;;;42.17;26.63;;;;;;;-5.76;100.00;101519.38;4927068;29;20188;-77
2024/01/20 01:30:40;;;;;;;39.93;26.13;;;;;;;-5.74;100.00;101520.34;4914299;29;20206;-78
2024/01/20 01:33:05;;;;;;;39.10;26.50;;;;;;;-5.71;100.00;101524.78;4916761;29;20192;-78
2024/01/20 01:35:30;;;;;;;43.17;25.27;;;;;;;-5.73;100.00;101521.25;4928563;29;20215;-78
2024/01/20 01:37:58;;;;;;;36.40;24.87;;;;;;;-5.74;100.00;101522.00;4914119;29;20206;-78
2024/01/20 01:40:24;;;;;;;40.63;25.77;;;;;;;-5.75;100.00;101525.28;4929267;29;20296;-78
2024/01/20 01:42:56;;;;;;;38.30;25.67;;;;;;;-5.85;100.00;101521.16;4925122;29;20655;-78
2024/01/20 01:45:21;;;;;;;39.90;26.87;;;;;;;-5.85;100.00;101523.69;4930263;29;20302;-78
2024/01/20 01:47:47;;;;;;;40.20;26.30;;;;;;;-5.88;100.00;101518.41;4931986;29;20270;-78
2024/01/20 01:50:12;;;;;;;42.40;27.10;;;;;;;-5.81;100.00;101525.69;4935102;29;20207;-78
2024/01/20 01:52:38;;;;;;;41.07;25.43;;;;;;;-5.85;100.00;101524.59;4936016;29;20191;-77
2024/01/20 01:55:04;;;;;;;42.70;25.90;;;;;;;-5.89;100.00;101531.78;4935335;29;20211;-77
2024/01/20 01:57:30;;;;;;;45.77;29.10;;;;;;;-5.98;100.00;101534.47;4931553;29;20211;-78
2024/01/20 01:59:57;;;;;;;42.83;27.30;;;;;;;-6.07;100.00;101533.78;4920880;29;20199;-77
2024/01/20 02:02:23;;;;;;;43.07;28.90;;;;;;;-6.19;100.00;101536.22;4937074;29;20216;-78
2024/01/20 02:04:48;;;;;;;39.60;26.37;;;;;;;-6.33;100.00;101536.00;4917925;29;20184;-78
2024/01/20 02:07:15;;;;;;;37.20;25.83;;;;;;;-6.46;100.00;101543.34;4937443;29;20305;-77
2024/01/20 02:09:41;;;;;;;34.73;25.13;;;;;;;-6.57;100.00;101556.72;4916787;29;20227;-78
2024/01/20 02:12:07;;;;;;;33.23;24.17;;;;;;;-6.69;100.00;101552.47;4929946;29;20206;-78
2024/01/20 02:14:34;;;;;;;31.33;22.47;;;;;;;-6.75;100.00;101550.31;4925384;29;20240;-77
2024/01/20 02:16:59;;;;;;;32.73;23.63;;;;;;;-6.75;100.00;101556.97;4937120;29;20452;-78
2024/01/20 02:19:24;;;;;;;30.33;21.23;;;;;;;-6.75;100.00;101556.97;4937563;29;20945;-77
2024/01/20 02:21:50;;;;;;;34.23;23.23;;;;;;;-6.78;100.00;101559.25;4936093;29;20218;-78
2024/01/20 02:24:15;;;;;;;31.50;22.83;;;;;;;-6.80;100.00;101554.09;4917270;29;20267;-78
2024/01/20 02:26:40;;;;;;;33.53;22.83;;;;;;;-6.92;100.00;101556.47;4935861;29;20207;-77
2024/01/20 02:29:06;;;;;;;30.57;22.53;;;;;;;-6.92;100.00;101558.13;4931695;29;20627;-78
2024/01/20 02:31:31;;;;;;;35.67;24.70;;;;;;;-6.93;100.00;101562.28;4935563;29;20203;-78
2024/01/20 02:33:56;;;;;;;35.63;24.53;;;;;;;-6.92;100.00;101550.59;4920498;29;20196;-77
2024/01/20 02:36:22;;;;;;;33.07;23.53;;;;;;;-6.81;100.00;101557.38;4931132;29;20215;-77
2024/01/20 02:38:48;;;;;;;33.77;23.30;;;;;;;-6.69;100.00;101554.97;4918854;29;20187;-77
2024/01/20 02:41:13;;;;;;;36.97;25.50;;;;;;;-6.56;100.00;101558.47;4935178;29;20255;-78
2024/01/20 02:43:38;;;;;;;39.97;26.07;;;;;;;-6.47;100.00;101554.16;4916368;29;20214;-78
2024/01/20 02:46:04;;;;;;;36.83;24.77;;;;;;;-6.36;100.00;101560.06;4934768;29;20246;-78
2024/01/20 02:48:30;;;;;;;41.47;25.10;;;;;;;-6.30;100.00;101556.41;4917422;29;20201;-78
2024/01/20 02:50:55;;;;;;;36.60;24.27;;;;;;;-6.19;100.00;101561.41;4936991;29;20188;-78
2024/01/20 02:53:20;;;;;;;41.93;24.83;;;;;;;-6.12;100.00;101562.00;4932608;29;20498;-77
2024/01/20 02:55:45;;;;;;;35.90;25.53;;;;;;;-6.07;100.00;101561.50;4937813;29;20278;-77
2024/01/20 02:58:11;;;;;;;42.93;27.23;;;;;;;-6.07;100.00;101559.88;4934791;29;20195;-78
2024/01/20 03:00:36;;;;;;;43.03;27.27;;;;;;;-6.08;100.00;101558.13;4925941;29;20428;-78
2024/01/20 03:03:02;;;;;;;41.90;26.97;;;;;;;-6.09;100.00;101557.97;4930239;29;20572;-78
2024/01/20 03:05:27;;;;;;;40.97;26.67;;;;;;;-6.12;100.00;101567.06;4934071;29;20906;-78
2024/01/20 03:07:52;;;;;;;37.63;26.03;;;;;;;-6.31;100.00;101573.94;4922138;29;20203;-78
2024/01/20 03:10:18;;;;;;;37.03;24.77;;;;;;;-6.40;100.00;101568.13;4931266;29;20990;-78
2024/01/20 03:12:43;;;;;;;37.10;24.97;;;;;;;-6.47;100.00;101569.28;4921782;29;20193;-78
2024/01/20 03:15:09;;;;;;;41.10;25.97;;;;;;;-6.52;100.00;101561.38;4921751;29;20203;-78
2024/01/20 03:17:34;;;;;;;40.13;24.90;;;;;;;-6.60;100.00;101559.88;4918276;29;21434;-78
2024/01/20 03:19:59;;;;;;;37.00;24.60;;;;;;;-6.67;100.00;101557.59;4935379;29;20202;-77
2024/01/20 03:22:25;;;;;;;34.10;23.20;;;;;;;-6.71;100.00;101553.06;4917936;29;20278;-78
2024/01/20 03:24:50;;;;;;;42.43;27.87;;;;;;;-6.76;100.00;101555.22;4936641;29;20261;-77
2024/01/20 03:27:19;;;;;;;37.67;25.77;;;;;;;-6.80;100.00;101553.19;4930468;29;20315;-76
2024/01/20 03:29:44;;;;;;;34.53;24.60;;;;;;;-6.82;100.00;101559.78;4918949;29;20329;-78
2024/01/20 03:32:10;;;;;;;36.90;25.93;;;;;;;-6.84;100.00;101569.69;4923208;29;20725;-77
2024/01/20 03:34:36;;;;;;;33.73;24.47;;;;;;;-6.86;100.00;101576.22;4916408;29;20207;-77
2024/01/20 03:37:01;;;;;;;34.20;23.37;;;;;;;-6.89;100.00;101570.97;4917787;29;20217;-78
2024/01/20 03:39:27;;;;;;;40.60;27.23;;;;;;;-6.98;100.00;101575.22;4917290;29;20197;-77
2024/01/20 03:41:52;;;;;;;36.43;24.23;;;;;;;-7.10;100.00;101575.09;4933107;29;20215;-78
2024/01/20 03:44:17;;;;;;;32.70;23.20;;;;;;;-7.11;100.00;101575.88;4915163;29;20608;-76
2024/01/20 03:46:43;;;;;;;31.87;23.07;;;;;;;-7.06;100.00;101569.56;4933126;29;20273;-78
2024/01/20 03:49:08;;;;;;;33.50;23.50;;;;;;;-6.98;100.00;101588.72;4918488;29;20662;-78
2024/01/20 03:51:34;;;;;;;32.00;22.70;;;;;;;-6.86;100.00;101598.88;4934941;29;20804;-78
2024/01/20 03:54:01;;;;;;;31.43;21.10;;;;;;;-6.76;100.00;101598.91;4919882;29;20598;-78
2024/01/20 03:56:27;;;;;;;32.23;22.70;;;;;;;-6.62;100.00;101597.50;4929806;29;20600;-78
2024/01/20 03:58:52;;;;;;;32.60;22.63;;;;;;;-6.50;100.00;101601.78;4931713;29;20274;-78
2024/01/20 04:01:17;;;;;;;35.13;25.90;;;;;;;-6.40;100.00;101601.78;4926540;29;20622;-77
2024/01/20 04:03:43;;;;;;;35.43;24.23;;;;;;;-6.31;100.00;101602.50;4932023;29;20377;-78
2024/01/20 04:06:08;;;;;;;36.07;24.90;;;;;;;-6.22;100.00;101606.53;4928306;29;20266;-77
2024/01/20 04:08:33;;;;;;;42.07;27.00;;;;;;;-6.16;100.00;101600.34;4927167;29;20251;-78
2024/01/20 04:10:59;;;;;;;41.90;25.87;;;;;;;-6.11;100.00;101618.34;4931660;29;20200;-78
2024/01/20 04:13:24;;;;;;;39.00;25.37;;;;;;;-6.13;100.00;101612.31;4917750;29;20666;-78
2024/01/20 04:15:50;;;;;;;45.63;27.43;;;;;;;-6.13;100.00;101622.38;4920635;29;20246;-78
2024/01/20 04:18:15;;;;;;;38.50;25.27;;;;;;;-6.19;100.00;101620.25;4935598;29;20191;-77
2024/01/20 04:20:42;;;;;;;37.43;25.73;;;;;;;-6.22;100.00;101619.13;4933084;29;20199;-77
2024/01/20 04:23:07;;;;;;;34.57;23.20;;;;;;;-6.28;100.00;101622.91;4917477;29;20653;-78
2024/01/20 04:25:33;;;;;;;38.73;26.00;;;;;;;-6.32;100.00;101625.94;4934270;29;20211;-78
2024/01/20 04:27:58;;;;;;;37.93;26.03;;;;;;;-6.37;100.00;101618.78;4934854;29;20576;-78
2024/01/20 04:30:23;;;;;;;36.57;25.73;;;;;;;-6.46;100.00;101621.41;4926492;29;20207;-77
2024/01/20 04:32:49;;;;;;;30.97;20.40;;;;;;;-6.54;100.00;101613.25;4919163;29;20451;-78
2024/01/20 04:35:14;;;;;;;40.23;25.67;;;;;;;-6.56;100.00;101618.91;4931953;29;20223;-78
2024/01/20 04:37:39;;;;;;;41.77;25.67;;;;;;;-6.71;100.00;101613.50;4915541;29;20243;-77
2024/01/20 04:40:05;;;;;;;31.53;22.27;;;;;;;-6.91;100.00;101626.19;4931014;29;20632;-77
2024/01/20 04:42:31;;;;;;;27.53;20.97;;;;;;;-7.03;100.00;101626.84;4934714;29;20195;-78
2024/01/20 04:44:56;;;;;;;28.60;20.13;;;;;;;-7.13;100.00;101623.53;4932165;29;20194;-77
2024/01/20 04:47:21;;;;;;;32.87;21.80;;;;;;;-7.13;100.00;101618.50;4931244;29;20239;-77
2024/01/20 04:49:49;;;;;;;29.93;21.80;;;;;;;-7.21;100.00;101617.00;4930269;29;20202;-77
2024/01/20 04:52:14;;;;;;;26.37;19.97;;;;;;;-7.20;100.00;101621.28;4918320;29;20317;-77
2024/01/20 04:54:40;;;;;;;27.87;20.00;;;;;;;-7.35;100.00;101633.41;4932840;29;20343;-77
2024/01/20 04:57:05;;;;;;;29.33;20.90;;;;;;;-7.39;100.00;101632.28;4913645;29;20313;-76
2024/01/20 04:59:30;;;;;;;31.60;22.23;;;;;;;-7.38;100.00;101630.63;4915586;29;20191;-78
2024/01/20 05:01:56;;;;;;;34.53;22.63;;;;;;;-7.38;100.00;101636.56;4931436;29;20191;-78
2024/01/20 05:04:21;;;;;;;37.07;25.03;;;;;;;-7.36;100.00;101632.56;4927521;29;20188;-77
2024/01/20 05:06:48;;;;;;;40.60;25.57;;;;;;;-7.36;100.00;101632.56;4926422;29;20350;-77
2024/01/20 05:09:13;;;;;;;37.63;24.87;;;;;;;-7.36;100.00;101635.06;4926987;29;20226;-77
2024/01/20 05:11:39;;;;;;;38.00;24.43;;;;;;;-7.33;100.00;101636.94;4926206;29;20970;-77
2024/01/20 05:14:04;;;;;;;39.43;25.27;;;;;;;-7.30;100.00;101633.81;4931382;29;20265;-77
2024/01/20 05:16:29;;;;;;;35.57;23.87;;;;;;;-7.29;100.00;101645.63;4929822;29;20219;-77
2024/01/20 05:18:55;;;;;;;37.10;24.10;;;;;;;-7.24;100.00;101644.41;4906267;29;20774;-77
2024/01/20 05:21:22;;;;;;;37.77;24.97;;;;;;;-7.19;100.00;101638.13;4913371;29;20737;-78
2024/01/20 05:23:47;;;;;;;35.80;23.53;;;;;;;-7.11;100.00;101639.63;4930539;29;20333;-78
2024/01/20 05:26:12;;;;;;;35.53;25.03;;;;;;;-7.05;100.00;101644.31;4932793;29;20257;-78
2024/01/20 05:28:37;;;;;;;39.27;25.47;;;;;;;-6.98;100.00;101638.16;4935370;29;20235;-77
2024/01/20 05:31:03;;;;;;;35.67;24.37;;;;;;;-6.90;100.00;101644.72;4939157;29;20608;-77
2024/01/20 05:33:28;;;;;;;50.23;30.83;;;;;;;-6.79;100.00;101646.50;4935344;29;20203;-76
2024/01/20 05:35:56;;;;;;;56.93;33.33;;;;;;;-6.78;100.00;101647.34;4914816;29;20218;-77
2024/01/20 05:38:21;;;;;;;48.53;30.87;;;;;;;-6.82;100.00;101653.78;4934514;29;20203;-78
2024/01/20 05:40:46;;;;;;;45.47;29.17;;;;;;;-6.90;100.00;101657.31;4924619;29;20194;-78
2024/01/20 05:43:12;;;;;;;41.37;27.07;;;;;;;-6.96;100.00;101650.13;4935791;29;20211;-77
2024/01/20 05:45:37;;;;;;;44.53;27.90;;;;;;;-7.02;100.00;101654.63;4934926;29;20214;-77
2024/01/20 05:48:03;;;;;;;41.37;25.57;;;;;;;-7.06;100.00;101661.06;4918738;29;20183;-77
2024/01/20 05:50:29;;;;;;;40.23;26.00;;;;;;;-7.11;100.00;101667.31;4920021;29;20183;-78
2024/01/20 05:52:54;;;;;;;36.57;24.97;;;;;;;-7.17;100.00;101673.47;4934941;29;20195;-78
2024/01/20 05:55:19;;;;;;;36.03;23.37;;;;;;;-7.21;100.00;101672.34;4915753;29;20333;-77
2024/01/20 05:57:45;;;;;;;42.57;25.50;;;;;;;-7.23;100.00;101667.16;4934423;29;20207;-78
2024/01/20 06:00:11;;;;;;;38.10;25.60;;;;;;;-7.25;100.00;101666.13;4932679;29;20259;-78
2024/01/20 06:02:36;;;;;;;37.13;24.17;;;;;;;-7.29;100.00;101670.78;4934702;29;20191;-78
2024/01/20 06:05:02;;;;;;;37.63;23.90;;;;;;;-7.20;100.00;101674.97;4935898;29;20182;-78
2024/01/20 06:07:27;;;;;;;33.40;23.10;;;;;;;-7.09;100.00;101673.38;4933276;29;20358;-77
2024/01/20 06:09:53;;;;;;;33.17;23.10;;;;;;;-7.00;100.00;101672.38;4932353;29;20191;-78
2024/01/20 06:12:18;;;;;;;32.60;23.07;;;;;;;-6.95;100.00;101686.22;4916105;29;20273;-78
2024/01/20 06:14:44;;;;;;;41.73;25.27;;;;;;;-6.96;100.00;101681.94;4934987;29;20322;-78
2024/01/20 06:17:09;;;;;;;35.20;24.97;;;;;;;-7.01;100.00;101685.69;4919128;29;20290;-78
2024/01/20 06:19:34;;;;;;;52.27;27.97;;;;;;;-7.03;100.00;101693.13;4912594;29;20188;-79
2024/01/20 06:22:00;;;;;;;42.73;25.67;;;;;;;-6.95;100.00;101696.28;4927295;29;20192;-78
2024/01/20 06:24:25;;;;;;;35.87;24.10;;;;;;;-6.92;100.00;101697.44;4936288;29;20191;-78
2024/01/20 06:26:50;;;;;;;37.13;23.53;;;;;;;-6.88;100.00;101698.56;4929813;29;20214;-78
2024/01/20 06:29:16;;;;;;;35.73;23.60;;;;;;;-6.80;100.00;101701.72;4937414;29;20211;-78
2024/01/20 06:31:41;;;;;;;36.97;24.27;;;;;;;-6.75;100.00;101703.00;4933262;29;20954;-78
2024/01/20 06:34:06;;;;;;;38.80;24.83;;;;;;;-6.71;100.00;101702.50;4922501;29;20199;-79
2024/01/20 06:36:32;;;;;;;42.70;26.57;;;;;;;-6.75;100.00;101711.47;4921338;29;20771;-78
2024/01/20 06:38:57;;;;;;;43.87;27.30;;;;;;;-6.72;100.00;101713.34;4920267;29;20187;-78
2024/01/20 06:41:22;;;;;;;42.73;26.43;;;;;;;-6.68;100.00;101709.44;4926100;29;20255;-78
2024/01/20 06:43:48;;;;;;;43.13;26.43;;;;;;;-6.64;100.00;101717.38;4936830;29;20235;-80
2024/01/20 06:46:13;;;;;;;41.97;26.53;;;;;;;-6.64;100.00;101717.38;4936950;29;20207;-78
2024/01/20 06:48:39;;;;;;;45.03;27.17;;;;;;;-6.64;100.00;101724.06;4936335;29;20195;-78
2024/01/20 06:51:04;;;;;;;48.53;28.20;;;;;;;-6.65;100.00;101724.81;4936612;29;20183;-78
2024/01/20 06:53:30;;;;;;;46.93;27.60;;;;;;;-6.65;100.00;101728.19;4937063;29;20199;-78
2024/01/20 06:55:56;;;;;;;53.20;30.40;;;;;;;-6.67;100.00;101742.31;4936962;29;20236;-78
2024/01/20 06:58:22;;;;;;;53.03;29.80;;;;;;;-6.70;100.00;101738.63;4919303;29;20187;-78
2024/01/20 07:00:47;;;;;;;48.57;29.47;;;;;;;-6.77;100.00;101729.69;4918644;29;20186;-77
2024/01/20 07:03:14;;;;;;;45.83;27.50;;;;;;;-6.85;100.00;101728.16;4922308;29;20557;-78
2024/01/20 07:05:39;;;;;;;43.93;27.50;;;;;;;-6.94;100.00;101733.31;4936138;29;20282;-79
2024/01/20 07:08:05;;;;;;;42.90;27.53;;;;;;;-7.01;100.00;101720.94;4936527;29;20214;-78
2024/01/20 07:10:30;;;;;;;40.23;26.20;;;;;;;-7.07;100.00;101728.84;4918993;29;20196;-78
2024/01/20 07:12:55;;;;;;;36.97;23.50;;;;;;;-7.16;100.00;101733.09;4935650;29;20195;-78
2024/01/20 07:15:21;;;;;;;33.43;22.67;;;;;;;-7.22;100.00;101743.53;4941120;29;20219;-78
2024/01/20 07:17:46;;;;;;;37.57;23.73;;;;;;;-7.28;100.00;101743.88;4921324;29;20576;-78
2024/01/20 07:20:12;;;;;;;35.60;23.70;;;;;;;-7.32;100.00;101746.88;4935589;29;20188;-79
2024/01/20 07:22:37;;;;;;;37.77;24.17;;;;;;;-7.37;100.00;101745.56;4932099;29;20191;-78
2024/01/20 07:25:04;;;;;;;37.70;23.90;;;;;;;-7.40;100.00;101737.75;4935818;29;20582;-78
2024/01/20 07:27:32;;;;;;;38.27;23.63;;;;;;;-7.45;100.00;101742.41;4918562;29;20206;-79
2024/01/20 07:29:58;;;;;;;41.13;26.33;;;;;;;-7.38;100.00;101747.22;4926654;29;20184;-78
2024/01/20 07:32:23;;;;;;;36.17;25.03;;;;;;;-7.39;100.00;101744.56;4937019;29;20665;-79
2024/01/20 07:34:48;;;;;;;38.20;24.67;;;;;;;-7.43;100.00;101743.41;4935712;29;20231;-79
2024/01/20 07:37:14;;;;;;;35.63;22.97;;;;;;;-7.48;100.00;101754.69;4936730;29;20262;-78
2024/01/20 07:39:39;;;;;;;31.87;21.23;;;;;;;-7.49;100.00;101758.00;4934378;29;20188;-78
2024/01/20 07:42:05;;;;;;;33.23;22.83;;;;;;;-7.48;100.00;101766.41;4945635;29;20209;-78
2024/01/20 07:44:30;;;;;;;31.47;21.97;;;;;;;-7.47;100.00;101784.13;4937673;29;20607;-78
2024/01/20 07:46:56;;;;;;;32.53;22.40;;;;;;;-7.51;100.00;101782.13;4919288;29;20209;-79
2024/01/20 07:49:21;;;;;;;34.17;22.60;;;;;;;-7.54;100.00;101785.22;4935529;29;20217;-78
2024/01/20 07:51:47;;;;;;;32.87;21.63;;;;;;;-7.55;100.00;101788.47;4918758;29;20191;-78
2024/01/20 07:54:12;;;;;;;31.70;21.47;;;;;;;-7.54;100.00;101786.88;4934220;29;20209;-79
2024/01/20 07:56:38;;;;;;;24.43;17.80;;;;;;;-7.46;100.00;101787.53;4933616;29;20211;-78
2024/01/20 07:59:03;;;;;;;30.70;20.00;;;;;;;-7.37;100.00;101783.31;4916680;29;20189;-79
2024/01/20 08:01:28;;;;;;;26.10;18.37;;;;;;;-7.27;100.00;101792.53;4927027;29;20186;-78
2024/01/20 08:03:54;;;;;;;24.70;17.47;;;;;;;-7.23;100.00;101789.56;4932213;29;20215;-78
2024/01/20 08:06:19;;;;;;;26.53;18.07;;;;;;;-7.16;100.00;101799.38;4933296;29;20799;-77
2024/01/20 08:08:44;;;;;;;22.87;17.87;;;;;;;-7.06;100.00;101799.47;4914684;29;20190;-77
2024/01/20 08:11:10;;;;;;;23.97;17.23;;;;;;;-6.95;100.00;101797.84;4920877;29;20241;-78
2024/01/20 08:13:36;;;;;;;23.53;17.23;;;;;;;-6.85;100.00;101801.16;4931943;29;20187;-79
2024/01/20 08:16:01;;;;;;;23.67;17.37;;;;;;;-6.76;100.00;101804.47;4915386;29;20207;-79
2024/01/20 08:18:26;;;;;;;24.47;17.27;;;;;;;-6.68;100.00;101813.56;4923451;29;20198;-77
2024/01/20 08:20:52;;;;;;;23.43;16.67;;;;;;;-6.55;100.00;101820.50;4925493;29;20181;-79
2024/01/20 08:23:17;;;;;;;24.17;18.20;;;;;;;-6.43;100.00;101819.03;4929640;29;20188;-78
2024/01/20 08:25:42;;;;;;;23.27;18.40;;;;;;;-6.32;100.00;101824.97;4929759;29;20265;-77
2024/01/20 08:28:08;;;;;;;26.97;19.10;;;;;;;-6.21;100.00;101830.94;4928856;29;20234;-77
2024/01/20 08:30:33;;;;;;;25.73;18.87;;;;;;;-6.10;100.00;101830.94;4914944;29;20191;-78
2024/01/20 08:32:58;;;;;;;31.70;22.03;;;;;;;-5.98;100.00;101830.28;4928892;29;20200;-77
2024/01/20 08:35:23;;;;;;;29.77;22.37;;;;;;;-5.86;100.00;101830.44;4912947;29;20211;-78
2024/01/20 08:37:49;;;;;;;31.83;23.87;;;;;;;-5.70;100.00;101831.69;4929690;29;20195;-77
2024/01/20 08:40:14;;;;;;;30.57;23.67;;;;;;;-5.59;100.00;101835.97;4932987;29;20289;-76
2024/01/20 08:42:39;;;;;;;30.07;22.53;;;;;;;-5.55;100.00;101827.00;4935216;29;20207;-77
2024/01/20 08:45:05;;;;;;;32.10;24.60;;;;;;;-5.45;100.00;101833.66;4927579;29;20957;-77
2024/01/20 08:47:31;;;;;;;32.83;24.97;;;;;;;-5.34;100.00;101839.59;4916644;29;20199;-78
2024/01/20 08:49:56;;;;;;;32.07;24.27;;;;;;;-5.22;100.00;101825.41;4927081;29;20194;-77
2024/01/20 08:52:22;;;;;;;29.70;23.27;;;;;;;-5.12;100.00;101835.47;4928566;29;20196;-77
2024/01/20 08:54:47;;;;;;;31.77;23.93;;;;;;;-5.03;100.00;101834.47;4914094;29;20202;-79
2024/01/20 08:57:13;;;;;;;29.90;22.53;;;;;;;-4.95;100.00;101839.34;4922074;29;20235;-78
2024/01/20 08:59:38;;;;;;;33.00;25.20;;;;;;;-4.85;100.00;101835.03;4929842;29;20207;-77
2024/01/20 09:02:05;;;;;;;35.90;26.37;;;;;;;-4.84;100.00;101835.13;4931666;29;20192;-78
2024/01/20 09:04:30;;;;;;;35.60;28.00;;;;;;;-4.79;100.00;101848.16;4931051;29;20196;-77
2024/01/20 09:06:55;;;;;;;36.37;27.77;;;;;;;-4.81;100.00;101840.44;4929858;29;20238;-77
2024/01/20 09:09:21;;;;;;;35.07;27.20;;;;;;;-4.69;100.00;101845.56;4929361;29;20195;-76
2024/01/20 09:11:46;;;;;;;35.33;28.10;;;;;;;-4.59;100.00;101837.94;4930255;29;20564;-77
2024/01/20 09:14:12;;;;;;;44.90;33.97;;;;;;;-4.49;100.00;101826.88;4929373;29;20233;-77
2024/01/20 09:16:37;;;;;;;46.73;36.67;;;;;;;-4.57;100.00;101832.13;4928551;29;20270;-77
2024/01/20 09:19:02;;;;;;;47.33;37.27;;;;;;;-4.56;100.00;101833.88;4929509;29;20219;-77
2024/01/20 09:21:28;;;;;;;48.20;38.33;;;;;;;-4.49;100.00;101831.94;4918377;29;20263;-77
2024/01/20 09:23:53;;;;;;;49.03;38.03;;;;;;;-4.35;100.00;101835.53;4930130;29;20183;-77
2024/01/20 09:26:18;;;;;;;58.53;41.77;;;;;;;-4.26;100.00;101842.94;4927866;29;20311;-76
2024/01/20 09:28:44;;;;;;;60.77;43.40;;;;;;;-4.22;100.00;101841.53;4930651;29;20814;-77
2024/01/20 09:31:09;;;;;;;60.60;44.97;;;;;;;-4.23;100.00;101847.34;4913757;29;20208;-77
2024/01/20 09:33:35;;;;;;;58.37;43.63;;;;;;;-4.23;100.00;101844.81;4931109;29;20211;-77
2024/01/20 09:36:02;;;;;;;63.30;43.67;;;;;;;-4.28;100.00;101836.88;4912596;29;20541;-77
2024/01/20 09:38:28;;;;;;;57.07;42.23;;;;;;;-4.17;100.00;101842.78;4928427;29;20602;-76
2024/01/20 09:40:55;;;;;;;57.50;40.87;;;;;;;-4.00;100.00;101836.44;4931569;29;20196;-76
2024/01/20 09:43:21;;;;;;;65.80;45.70;;;;;;;-3.89;100.00;101840.66;4930204;29;20204;-76
2024/01/20 09:45:46;;;;;;;58.10;42.53;;;;;;;-3.85;100.00;101841.75;4928418;29;20212;-78
2024/01/20 09:48:11;;;;;;;58.30;44.90;;;;;;;-3.81;100.00;101841.22;4918929;29;20187;-77
2024/01/20 09:50:37;;;;;;;54.27;40.13;;;;;;;-3.85;100.00;101844.28;4919017;29;20753;-79
2024/01/20 09:53:11;;;;;;;50.47;38.00;;;;;;;-3.76;100.00;101849.16;4915875;29;20732;-78
2024/01/20 09:55:36;;;;;;;51.73;37.87;;;;;;;-3.71;100.00;101845.31;4916773;29;20233;-79
2024/01/20 09:58:03;;;;;;;49.27;39.63;;;;;;;-3.66;100.00;101854.16;4925860;29;20208;-79
2024/01/20 10:00:29;;;;;;;61.83;44.80;;;;;;;-3.65;100.00;101852.47;4932925;29;20211;-77
2024/01/20 10:02:55;;;;;;;66.90;48.27;;;;;;;-3.60;100.00;101847.00;4933381;29;20187;-77
2024/01/20 10:05:24;;;;;;;65.40;45.47;;;;;;;-3.70;100.00;101853.00;4932145;29;20191;-76
2024/01/20 10:07:49;;;;;;;56.63;42.20;;;;;;;-3.78;100.00;101859.16;4915945;29;20199;-78
2024/01/20 10:10:21;;;;;;;56.70;41.70;;;;;;;-3.79;100.00;101859.06;4915682;29;20643;-81
2024/01/20 10:12:48;;;;;;;52.60;38.30;;;;;;;-3.68;100.00;101859.06;4917078;29;20286;-77
2024/01/20 10:15:14;;;;;;;54.77;39.87;;;;;;;-3.48;100.00;101862.19;4938055;29;20215;-77
2024/01/20 10:17:39;;;;;;;53.10;39.87;;;;;;;-3.35;100.00;101858.03;4918616;29;20210;-77
2024/01/20 10:20:05;;;;;;;62.27;46.33;;;;;;;-3.33;100.00;101857.41;4924082;29;20986;-78
2024/01/20 10:22:30;;;;;;;62.83;47.87;;;;;;;-3.29;100.00;101854.28;4914526;29;20203;-79
2024/01/20 10:24:56;;;;;;;66.97;47.40;;;;;;;-3.26;100.00;101848.59;4934956;29;20207;-76
2024/01/20 10:27:25;;;;;;;60.97;45.13;;;;;;;-3.25;100.00;101850.31;4919133;29;20211;-79
2024/01/20 10:29:51;;;;;;;61.73;45.67;;;;;;;-3.13;100.00;101843.63;4934914;29;20195;-78
2024/01/20 10:32:17;;;;;;;61.63;45.37;;;;;;;-3.06;100.00;101852.56;4935162;29;20587;-77
2024/01/20 10:34:43;;;;;;;77.63;57.17;;;;;;;-3.04;100.00;101853.56;4934035;29;20213;-77
2024/01/20 10:37:13;;;;;;;75.30;55.93;;;;;;;-3.08;100.00;101857.50;4932427;29;20211;-78
2024/01/20 10:39:45;;;;;;;73.10;53.53;;;;;;;-2.95;100.00;101860.94;4933062;29;20192;-79
2024/01/20 10:42:13;;;;;;;67.57;50.97;;;;;;;-2.83;100.00;101860.91;4931248;29;20189;-79
2024/01/20 10:44:52;;;;;;;70.40;51.13;;;;;;;-2.71;100.00;101869.34;4929956;29;20187;-78
2024/01/20 10:47:32;;;;;;;69.43;50.93;;;;;;;-2.59;100.00;101868.47;4933508;29;20211;-77
2024/01/20 10:50:03;;;;;;;81.73;58.97;;;;;;;-2.54;100.00;101864.59;4937091;29;20188;-78
2024/01/20 10:52:31;;;;;;;81.73;59.23;;;;;;;-2.46;100.00;101855.88;4934049;29;20192;-77
2024/01/20 10:54:58;;;;;;;80.67;59.27;;;;;;;-2.59;100.00;101868.47;4934946;29;20578;-77